Time;durP1;ratioP1;P1;durP2;ratioP2;P2;SDS_P1;SDS_P2;PMS_P1;PMS_P2;Temp;Humidity;BMP_temperature;BMP_pressure;BME280_temperature;BME280_humidity;BME280_pressure;Samples;Min_cycle;Max_cycle;Signal;HPM_P1;HPM_P2
2021/05/14 00:00:26;;;;;;;17.83;11.73;;;9.60;99.90;;;;;;5093658;27;20201;-45
2021/05/14 00:02:53;;;;;;;19.10;12.30;;;9.60;99.90;;;;;;5125426;27;20376;-47
2021/05/14 00:05:20;;;;;;;17.57;12.63;;;9.60;99.90;;;;;;5105596;27;20269;-53
2021/05/14 00:07:48;;;;;;;19.00;13.77;;;9.60;99.90;;;;;;5107424;27;20256;-47
2021/05/14 00:10:15;;;;;;;18.23;13.00;;;9.60;99.90;;;;;;5119141;27;20193;-51
2021/05/14 00:12:42;;;;;;;22.37;12.97;;;9.60;99.90;;;;;;5115464;27;20196;-49
2021/05/14 00:15:09;;;;;;;26.90;15.63;;;9.60;99.90;;;;;;5108489;27;20651;-52
2021/05/14 00:17:35;;;;;;;27.13;15.13;;;9.70;99.90;;;;;;5104470;27;20199;-49
2021/05/14 00:20:02;;;;;;;21.10;15.27;;;9.70;99.90;;;;;;5124330;27;20196;-49
2021/05/14 00:22:28;;;;;;;24.07;15.03;;;9.60;99.90;;;;;;5105045;27;20993;-45
2021/05/14 00:24:55;;;;;;;22.37;13.77;;;9.60;99.90;;;;;;5122630;27;20209;-45
2021/05/14 00:27:21;;;;;;;21.27;14.10;;;9.60;99.90;;;;;;5101894;27;20204;-46
2021/05/14 00:29:47;;;;;;;22.50;13.50;;;9.60;99.90;;;;;;5104158;27;20197;-48
2021/05/14 00:32:14;;;;;;;22.93;13.83;;;9.60;99.90;;;;;;5131639;27;20210;-51
2021/05/14 00:34:40;;;;;;;21.17;13.53;;;9.60;99.90;;;;;;5131571;27;20200;-48
2021/05/14 00:37:06;;;;;;;20.13;14.17;;;9.60;99.90;;;;;;5107414;27;20196;-50
2021/05/14 00:39:32;;;;;;;25.97;13.20;;;9.60;99.90;;;;;;5122293;27;20184;-49
2021/05/14 00:41:59;;;;;;;21.50;12.77;;;9.60;99.90;;;;;;5136229;27;20184;-49
2021/05/14 00:44:27;;;;;;;19.20;12.17;;;9.60;99.90;;;;;;5103452;27;20834;-46
2021/05/14 00:46:53;;;;;;;22.87;12.53;;;9.60;99.90;;;;;;5118979;27;20224;-45
2021/05/14 00:49:20;;;;;;;18.83;11.60;;;9.60;99.90;;;;;;5111677;27;20200;-51
2021/05/14 00:51:47;;;;;;;18.10;11.90;;;9.50;99.90;;;;;;5104221;27;20204;-45
2021/05/14 00:54:14;;;;;;;18.87;11.63;;;9.50;99.90;;;;;;5115231;27;20538;-51
2021/05/14 00:56:40;;;;;;;17.43;12.10;;;9.50;99.90;;;;;;5125526;27;20208;-47
2021/05/14 00:59:07;;;;;;;17.40;11.60;;;9.50;99.90;;;;;;5121395;27;20196;-53
2021/05/14 01:01:34;;;;;;;23.67;10.83;;;9.50;99.90;;;;;;5122372;27;20203;-46
2021/05/14 01:04:00;;;;;;;20.17;10.87;;;9.60;99.90;;;;;;5109657;27;20574;-46
2021/05/14 01:06:26;;;;;;;22.80;11.87;;;9.50;99.90;;;;;;5120238;27;20211;-45
2021/05/14 01:08:52;;;;;;;18.37;10.30;;;9.50;99.90;;;;;;5119407;27;20668;-45
2021/05/14 01:11:18;;;;;;;17.10;10.77;;;9.50;99.90;;;;;;5133384;27;20200;-49
2021/05/14 01:13:44;;;;;;;21.40;11.23;;;9.50;99.90;;;;;;5103195;28;20205;-45
2021/05/14 01:16:11;;;;;;;16.87;10.37;;;9.60;99.90;;;;;;5114012;27;20218;-50
2021/05/14 01:18:37;;;;;;;17.40;10.43;;;9.60;99.90;;;;;;5106186;27;20881;-48
2021/05/14 01:21:05;;;;;;;17.20;10.03;;;9.50;99.90;;;;;;5121000;27;20693;-50
2021/05/14 01:23:31;;;;;;;14.23;11.13;;;9.50;99.90;;;;;;5110135;27;20240;-45
2021/05/14 01:25:57;;;;;;;18.13;10.00;;;9.50;99.90;;;;;;5128661;27;20200;-45
2021/05/14 01:28:24;;;;;;;17.70;10.87;;;9.50;99.90;;;;;;5118269;27;20199;-49
2021/05/14 01:30:50;;;;;;;19.57;11.03;;;9.60;99.90;;;;;;5133669;27;20196;-47
2021/05/14 01:33:16;;;;;;;19.03;11.13;;;9.60;99.90;;;;;;5099853;27;20662;-49
2021/05/14 01:35:42;;;;;;;19.60;10.77;;;9.60;99.90;;;;;;5119098;27;20200;-49
2021/05/14 01:38:09;;;;;;;16.57;11.27;;;9.50;99.90;;;;;;5123083;27;20201;-50
2021/05/14 01:40:36;;;;;;;18.50;11.37;;;9.50;99.90;;;;;;5128236;27;20856;-50
2021/05/14 01:43:02;;;;;;;17.13;11.20;;;9.50;99.90;;;;;;5102837;28;20204;-51
2021/05/14 01:45:28;;;;;;;18.30;11.07;;;9.60;99.90;;;;;;5099220;28;20223;-46
2021/05/14 01:47:55;;;;;;;21.07;11.83;;;9.60;99.90;;;;;;5099653;27;20293;-49
2021/05/14 01:50:21;;;;;;;21.33;13.50;;;9.60;99.90;;;;;;5107325;28;20220;-48
2021/05/14 01:52:47;;;;;;;24.43;13.63;;;9.60;99.90;;;;;;5122415;27;20669;-46
2021/05/14 01:55:16;;;;;;;20.80;12.80;;;9.60;99.90;;;;;;5110279;27;20225;-52
2021/05/14 01:57:42;;;;;;;16.87;12.43;;;9.60;99.90;;;;;;5129120;27;20241;-46
2021/05/14 02:00:11;;;;;;;21.27;13.13;;;9.60;99.90;;;;;;5134124;27;20714;-49
2021/05/14 02:02:37;;;;;;;19.10;12.73;;;9.60;99.90;;;;;;5114888;27;20239;-47
2021/05/14 02:05:04;;;;;;;24.00;12.73;;;9.60;99.90;;;;;;5102848;28;20221;-49
2021/05/14 02:07:31;;;;;;;19.23;12.40;;;9.60;99.90;;;;;;5101447;28;20190;-48
2021/05/14 02:09:57;;;;;;;19.77;12.47;;;9.60;99.90;;;;;;5099782;27;20212;-48
2021/05/14 02:12:24;;;;;;;22.07;12.87;;;9.60;99.90;;;;;;5129757;27;20185;-45
2021/05/14 02:14:50;;;;;;;19.97;13.10;;;9.60;99.90;;;;;;5122941;28;20705;-50
2021/05/14 02:17:17;;;;;;;21.80;12.23;;;9.60;99.90;;;;;;5111864;27;20193;-49
2021/05/14 02:19:43;;;;;;;27.33;13.53;;;9.60;99.90;;;;;;5110573;27;20209;-47
2021/05/14 02:22:09;;;;;;;23.43;13.13;;;9.60;99.90;;;;;;5106258;27;20185;-52
2021/05/14 02:24:35;;;;;;;22.63;12.93;;;9.50;99.90;;;;;;5102684;28;20262;-51
2021/05/14 02:27:03;;;;;;;23.83;13.80;;;9.50;99.90;;;;;;5114134;27;20196;-52
2021/05/14 02:29:33;;;;;;;20.30;12.60;;;9.50;99.90;;;;;;5124743;27;20929;-51
2021/05/14 02:31:59;;;;;;;21.37;12.80;;;9.60;99.90;;;;;;5123800;27;20193;-50
2021/05/14 02:34:26;;;;;;;18.47;12.53;;;9.50;99.90;;;;;;5101978;27;20270;-49
2021/05/14 02:36:52;;;;;;;19.90;13.20;;;9.60;99.90;;;;;;5111243;27;20723;-47
2021/05/14 02:39:18;;;;;;;22.10;12.83;;;9.60;99.90;;;;;;5114460;27;20726;-50
2021/05/14 02:41:44;;;;;;;18.00;12.17;;;9.60;99.90;;;;;;5104116;27;20200;-48
2021/05/14 02:44:10;;;;;;;17.73;12.20;;;9.60;99.90;;;;;;5137035;27;20212;-51
2021/05/14 02:46:37;;;;;;;20.37;13.10;;;9.50;99.90;;;;;;5124621;27;20192;-47
2021/05/14 02:49:04;;;;;;;22.17;13.23;;;9.60;99.90;;;;;;5110988;27;20276;-51
2021/05/14 02:51:30;;;;;;;19.90;12.27;;;9.50;99.90;;;;;;5100971;27;20189;-48
2021/05/14 02:53:56;;;;;;;18.10;12.30;;;9.50;99.90;;;;;;5106468;28;20208;-45
2021/05/14 02:56:23;;;;;;;19.07;12.73;;;9.50;99.90;;;;;;5098429;27;20208;-47
2021/05/14 02:58:49;;;;;;;28.67;14.70;;;9.50;99.90;;;;;;5134175;27;20257;-47
2021/05/14 03:01:16;;;;;;;30.27;14.70;;;9.50;99.90;;;;;;5127019;27;20246;-50
2021/05/14 03:03:42;;;;;;;21.27;14.03;;;9.60;99.90;;;;;;5106368;27;20230;-47
2021/05/14 03:06:09;;;;;;;28.80;16.43;;;9.60;99.90;;;;;;5106786;27;20575;-51
2021/05/14 03:08:35;;;;;;;25.57;15.80;;;9.50;99.90;;;;;;5106590;27;20375;-50
2021/05/14 03:11:02;;;;;;;31.37;17.07;;;9.50;99.90;;;;;;5119631;27;20189;-52
2021/05/14 03:13:28;;;;;;;30.07;16.20;;;9.50;99.90;;;;;;5109586;27;20933;-50
2021/05/14 03:15:54;;;;;;;36.77;17.03;;;9.50;99.90;;;;;;5137847;27;20192;-46
2021/05/14 03:18:20;;;;;;;29.83;16.67;;;9.50;99.90;;;;;;5124209;27;20201;-50
2021/05/14 03:20:47;;;;;;;30.43;18.37;;;9.50;99.90;;;;;;5119661;27;20193;-47
2021/05/14 03:23:13;;;;;;;31.17;16.23;;;9.50;99.90;;;;;;5115954;27;20237;-50
2021/05/14 03:25:40;;;;;;;26.17;16.57;;;9.50;99.90;;;;;;5098879;27;20751;-46
2021/05/14 03:28:06;;;;;;;34.30;17.73;;;9.50;99.90;;;;;;5108211;27;20213;-48
2021/05/14 03:30:32;;;;;;;27.63;15.80;;;9.50;99.90;;;;;;5125676;27;20217;-51
2021/05/14 03:32:59;;;;;;;32.73;15.87;;;9.50;99.90;;;;;;5130859;27;20277;-46
2021/05/14 03:35:25;;;;;;;27.70;15.70;;;9.50;99.90;;;;;;5115738;27;20250;-46
2021/05/14 03:37:52;;;;;;;24.83;15.17;;;9.50;99.90;;;;;;5115705;27;20955;-45
2021/05/14 03:40:25;;;;;;;29.80;16.00;;;9.50;99.90;;;;;;5108891;27;20193;-45
2021/05/14 03:42:52;;;;;;;27.30;14.60;;;9.50;99.90;;;;;;5101263;27;20223;-49
2021/05/14 03:45:18;;;;;;;23.77;15.07;;;9.60;99.90;;;;;;5135580;27;20723;-47
2021/05/14 03:47:44;;;;;;;24.77;14.03;;;9.50;99.90;;;;;;5121658;27;20294;-52
2021/05/14 03:50:12;;;;;;;24.03;14.30;;;9.50;99.90;;;;;;5104620;28;20197;-51
2021/05/14 03:52:38;;;;;;;22.87;12.27;;;9.60;99.90;;;;;;5101274;27;20198;-51
2021/05/14 03:55:07;;;;;;;22.53;12.67;;;9.50;99.90;;;;;;5124327;27;20215;-49
2021/05/14 03:57:33;;;;;;;19.20;12.33;;;9.50;99.90;;;;;;5099969;27;20225;-52
2021/05/14 03:59:59;;;;;;;20.27;12.73;;;9.50;99.90;;;;;;5112028;27;20196;-48
2021/05/14 04:02:25;;;;;;;24.13;12.87;;;9.50;99.90;;;;;;5114025;27;20200;-49
2021/05/14 04:04:52;;;;;;;24.90;13.07;;;9.50;99.90;;;;;;5110304;27;20224;-47
2021/05/14 04:07:19;;;;;;;24.17;12.33;;;9.50;99.90;;;;;;5115027;27;20189;-46
2021/05/14 04:09:51;;;;;;;25.07;12.33;;;9.50;99.90;;;;;;5100296;27;20185;-50
2021/05/14 04:14:59;;;;;;;21.73;11.47;;;9.50;99.90;;;;;;5121096;27;20768;-46
2021/05/14 04:17:25;;;;;;;21.10;11.73;;;9.50;99.90;;;;;;5124802;27;20563;-46
2021/05/14 04:19:51;;;;;;;20.90;12.03;;;9.50;99.90;;;;;;5107469;27;20990;-48
2021/05/14 04:22:17;;;;;;;20.67;11.47;;;9.50;99.90;;;;;;5112679;27;20522;-46
2021/05/14 04:24:44;;;;;;;20.30;11.27;;;9.50;99.90;;;;;;5116669;27;20590;-52
2021/05/14 04:27:10;;;;;;;23.93;11.73;;;9.50;99.90;;;;;;5137619;27;20193;-46
2021/05/14 04:29:37;;;;;;;20.73;11.10;;;9.50;99.90;;;;;;5093649;27;20212;-52
2021/05/14 04:32:04;;;;;;;18.43;10.67;;;9.50;99.90;;;;;;5123315;27;20205;-51
2021/05/14 04:34:30;;;;;;;16.83;9.63;;;9.50;99.90;;;;;;5103648;28;20205;-49
2021/05/14 04:36:56;;;;;;;16.23;9.47;;;9.50;99.90;;;;;;5114577;27;20188;-45
2021/05/14 04:39:22;;;;;;;17.57;9.57;;;9.50;99.90;;;;;;5111239;27;20193;-45
2021/05/14 04:41:48;;;;;;;17.20;10.97;;;9.50;99.90;;;;;;5100554;28;20290;-45
2021/05/14 04:44:16;;;;;;;19.23;10.30;;;9.50;99.90;;;;;;5094281;27;20229;-49
2021/05/14 04:46:44;;;;;;;18.40;11.47;;;9.50;99.90;;;;;;5125165;27;20189;-52
2021/05/14 04:49:10;;;;;;;20.37;10.70;;;9.50;99.90;;;;;;5104445;27;20614;-46
2021/05/14 04:51:36;;;;;;;12.87;9.00;;;9.50;99.90;;;;;;5113047;27;20192;-50
2021/05/14 04:54:04;;;;;;;18.60;9.50;;;9.50;99.90;;;;;;5120158;27;20224;-45
2021/05/14 04:56:30;;;;;;;17.30;9.20;;;9.50;99.90;;;;;;5111887;27;20195;-45
2021/05/14 04:58:56;;;;;;;16.70;9.77;;;9.50;99.90;;;;;;5118202;27;20959;-50
2021/05/14 05:01:23;;;;;;;14.90;9.03;;;9.50;99.90;;;;;;5115568;27;20207;-46
2021/05/14 05:03:53;;;;;;;20.37;9.60;;;9.60;99.90;;;;;;5115744;27;20217;-45
2021/05/14 05:06:20;;;;;;;16.93;10.03;;;9.60;99.90;;;;;;5100220;28;20185;-45
2021/05/14 05:08:47;;;;;;;18.23;9.53;;;9.50;99.90;;;;;;5115447;27;20204;-46
2021/05/14 05:11:13;;;;;;;22.30;9.23;;;9.50;99.90;;;;;;5113748;27;20208;-50
2021/05/14 05:13:39;;;;;;;16.57;9.37;;;9.50;99.90;;;;;;5123916;27;20221;-45
2021/05/14 05:16:06;;;;;;;10.30;7.87;;;9.50;99.90;;;;;;5115117;27;20206;-49
2021/05/14 05:18:32;;;;;;;20.57;9.70;;;9.50;99.90;;;;;;5120555;27;21014;-50
2021/05/14 05:20:59;;;;;;;16.87;7.77;;;9.60;99.90;;;;;;5103343;27;20201;-52
2021/05/14 05:23:25;;;;;;;19.13;8.47;;;9.60;99.90;;;;;;5114467;27;20885;-45
2021/05/14 05:25:52;;;;;;;18.57;8.23;;;9.60;99.90;;;;;;5116098;27;20258;-53
2021/05/14 05:28:21;;;;;;;16.83;8.43;;;9.60;99.90;;;;;;5108246;27;20347;-51
2021/05/14 05:30:47;;;;;;;22.37;8.17;;;9.60;99.90;;;;;;5112543;27;20210;-51
2021/05/14 05:33:14;;;;;;;21.20;8.17;;;9.60;99.90;;;;;;5121236;27;21110;-46
2021/05/14 05:35:40;;;;;;;15.40;7.03;;;9.60;99.90;;;;;;5105313;28;20189;-47
2021/05/14 05:38:15;;;;;;;17.90;8.37;;;9.60;99.90;;;;;;5119587;27;20654;-49
2021/05/14 05:40:41;;;;;;;22.47;8.00;;;9.60;99.90;;;;;;5107239;27;20222;-45
2021/05/14 05:43:07;;;;;;;17.47;7.23;;;9.60;99.90;;;;;;5103583;27;20313;-49
2021/05/14 05:45:33;;;;;;;12.63;7.00;;;9.60;99.90;;;;;;5121831;27;20220;-47
2021/05/14 05:47:59;;;;;;;18.60;7.93;;;9.60;99.90;;;;;;5101289;27;20357;-46
2021/05/14 05:50:26;;;;;;;15.17;6.20;;;9.60;99.90;;;;;;5116082;27;20656;-45
2021/05/14 05:52:54;;;;;;;17.33;6.83;;;9.60;99.90;;;;;;5108160;27;20290;-52
2021/05/14 05:55:21;;;;;;;19.00;7.67;;;9.60;99.90;;;;;;5116050;27;20204;-46
2021/05/14 05:57:48;;;;;;;18.43;7.60;;;9.60;99.90;;;;;;5103975;27;20196;-52
2021/05/14 06:00:15;;;;;;;18.40;7.80;;;9.60;99.90;;;;;;5117118;27;20203;-47
2021/05/14 06:02:42;;;;;;;11.90;6.73;;;9.70;99.90;;;;;;5097556;27;20208;-47
2021/05/14 06:05:09;;;;;;;17.30;7.13;;;9.70;99.90;;;;;;5109780;27;20701;-51
2021/05/14 06:07:36;;;;;;;18.00;7.30;;;9.70;99.90;;;;;;5099920;27;20197;-49
2021/05/14 06:10:02;;;;;;;15.50;7.13;;;9.70;99.90;;;;;;5120336;27;20662;-50
2021/05/14 06:12:29;;;;;;;18.20;7.30;;;9.80;99.90;;;;;;5116588;27;20250;-47
2021/05/14 06:14:56;;;;;;;12.20;7.03;;;9.80;99.90;;;;;;5113188;27;20204;-46
2021/05/14 06:17:22;;;;;;;16.07;7.90;;;9.80;99.90;;;;;;5114422;27;20208;-51
2021/05/14 06:19:52;;;;;;;14.53;6.90;;;9.90;99.90;;;;;;5125206;27;20205;-46
2021/05/14 06:22:18;;;;;;;16.87;7.83;;;9.90;99.90;;;;;;5134617;27;20866;-50
2021/05/14 06:24:44;;;;;;;15.60;7.30;;;9.90;99.90;;;;;;5121546;27;20318;-52
2021/05/14 06:27:10;;;;;;;13.40;7.60;;;9.90;99.90;;;;;;5117719;27;20196;-53
2021/05/14 06:29:37;;;;;;;21.67;7.33;;;9.90;99.90;;;;;;5101933;27;20197;-49
2021/05/14 06:32:04;;;;;;;15.30;7.53;;;9.90;99.90;;;;;;5126074;27;20196;-53
2021/05/14 06:34:30;;;;;;;14.47;8.10;;;9.90;99.90;;;;;;5117250;27;20201;-51
2021/05/14 06:36:56;;;;;;;19.73;7.20;;;10.00;99.90;;;;;;5121872;27;20202;-48
2021/05/14 06:39:23;;;;;;;33.20;18.80;;;9.90;99.90;;;;;;5120964;27;20279;-51
2021/05/14 06:41:49;;;;;;;18.43;7.83;;;9.90;99.90;;;;;;5135495;27;20197;-46
2021/05/14 06:44:15;;;;;;;16.20;7.70;;;9.90;99.90;;;;;;5120829;27;20269;-52
2021/05/14 06:46:43;;;;;;;17.60;7.20;;;9.90;99.90;;;;;;5106678;27;20189;-47
2021/05/14 06:49:10;;;;;;;20.83;7.83;;;9.90;99.90;;;;;;5106803;27;20753;-49
2021/05/14 06:51:36;;;;;;;14.93;7.40;;;10.00;99.90;;;;;;5111963;27;20197;-46
2021/05/14 06:54:03;;;;;;;19.60;7.17;;;10.00;99.90;;;;;;5120486;27;20224;-49
2021/05/14 06:56:29;;;;;;;17.13;7.00;;;10.00;99.90;;;;;;5121080;27;20285;-47
2021/05/14 06:58:55;;;;;;;17.47;7.83;;;9.90;99.90;;;;;;5110022;27;20684;-47
2021/05/14 07:01:22;;;;;;;21.10;7.87;;;9.90;99.90;;;;;;5132247;27;20200;-52
2021/05/14 07:03:49;;;;;;;13.13;7.27;;;9.90;99.90;;;;;;5105299;27;20242;-50
2021/05/14 07:06:17;;;;;;;13.97;6.77;;;9.90;99.90;;;;;;5108714;27;20487;-48
2021/05/14 07:08:44;;;;;;;17.87;7.77;;;9.80;99.90;;;;;;5121337;27;20207;-45
2021/05/14 07:11:10;;;;;;;14.97;7.47;;;9.80;99.90;;;;;;5105786;27;20222;-49
2021/05/14 07:13:36;;;;;;;19.27;8.17;;;9.80;99.90;;;;;;5110079;27;20731;-46
2021/05/14 07:16:03;;;;;;;17.57;8.37;;;9.90;99.90;;;;;;5119192;27;20211;-51
2021/05/14 07:18:29;;;;;;;10.33;6.30;;;9.90;99.90;;;;;;5122971;27;20636;-48
2021/05/14 07:20:57;;;;;;;22.90;8.17;;;9.90;99.90;;;;;;5113423;27;20201;-51
2021/05/14 07:23:23;;;;;;;12.07;6.47;;;9.90;99.90;;;;;;5108930;27;20200;-46
2021/05/14 07:25:49;;;;;;;17.13;6.43;;;10.00;99.90;;;;;;5111075;27;20656;-51
2021/05/14 07:28:15;;;;;;;11.93;7.03;;;10.00;99.90;;;;;;5120995;27;20275;-47
2021/05/14 07:30:42;;;;;;;15.57;8.00;;;10.00;99.90;;;;;;5118159;27;20245;-47
2021/05/14 07:33:08;;;;;;;17.00;6.53;;;10.00;99.90;;;;;;5118951;27;20256;-47
2021/05/14 07:35:34;;;;;;;16.33;7.13;;;9.90;99.90;;;;;;5119916;27;20220;-52
2021/05/14 07:38:01;;;;;;;16.93;7.00;;;10.00;99.90;;;;;;5132223;27;20193;-50
2021/05/14 07:40:28;;;;;;;16.43;7.30;;;10.00;99.90;;;;;;5113462;27;20216;-48
2021/05/14 07:42:54;;;;;;;12.57;6.73;;;10.00;99.90;;;;;;5130079;27;20870;-53
2021/05/14 07:45:20;;;;;;;9.07;6.53;;;10.10;99.90;;;;;;5136201;27;20979;-47
2021/05/14 07:47:46;;;;;;;16.60;7.03;;;10.10;99.90;;;;;;5109040;27;20276;-51
2021/05/14 07:50:13;;;;;;;19.60;7.20;;;10.10;99.90;;;;;;5109492;27;20199;-49
2021/05/14 07:52:40;;;;;;;16.73;7.13;;;10.20;99.90;;;;;;5117755;27;20247;-47
2021/05/14 07:55:08;;;;;;;18.90;7.33;;;10.20;99.90;;;;;;5116953;27;20215;-52
2021/05/14 07:57:34;;;;;;;19.40;6.63;;;10.20;99.90;;;;;;5120164;27;20670;-48
2021/05/14 08:00:00;;;;;;;14.80;6.20;;;10.30;99.90;;;;;;5126537;27;20657;-50
2021/05/14 08:02:26;;;;;;;12.03;6.50;;;10.30;99.90;;;;;;5114670;27;20203;-50
2021/05/14 08:04:53;;;;;;;9.87;6.53;;;10.30;99.90;;;;;;5109455;27;20217;-52
2021/05/14 08:07:19;;;;;;;18.47;6.43;;;10.30;99.90;;;;;;5096963;27;20193;-48
2021/05/14 08:09:45;;;;;;;14.63;6.70;;;10.40;99.90;;;;;;5106615;27;20211;-46
2021/05/14 08:12:12;;;;;;;17.23;5.90;;;10.40;99.90;;;;;;5114331;27;20669;-50
2021/05/14 08:14:39;;;;;;;14.43;6.30;;;10.40;99.90;;;;;;5117098;27;20291;-47
2021/05/14 08:17:05;;;;;;;16.30;6.43;;;10.40;99.90;;;;;;5122554;27;20570;-45
2021/05/14 08:19:31;;;;;;;13.33;5.77;;;10.50;99.90;;;;;;5112507;27;20937;-48
2021/05/14 08:21:57;;;;;;;10.23;5.77;;;10.50;99.90;;;;;;5115058;27;20289;-46
2021/05/14 08:24:24;;;;;;;10.90;6.00;;;10.50;99.90;;;;;;5122604;27;20212;-52
2021/05/14 08:26:50;;;;;;;11.20;5.40;;;10.50;99.90;;;;;;5108368;27;20205;-47
2021/05/14 08:29:17;;;;;;;9.93;5.33;;;10.50;99.90;;;;;;5125168;27;20202;-52
2021/05/14 08:31:43;;;;;;;14.37;5.47;;;10.50;99.90;;;;;;5109389;27;20319;-46
2021/05/14 08:34:11;;;;;;;7.53;5.50;;;10.50;99.90;;;;;;5104786;27;20220;-47
2021/05/14 08:36:37;;;;;;;11.40;5.03;;;10.50;99.90;;;;;;5099616;27;20203;-49
2021/05/14 08:39:05;;;;;;;14.50;5.03;;;10.60;99.90;;;;;;5135133;27;20198;-47
2021/05/14 08:41:31;;;;;;;12.67;5.27;;;10.50;99.90;;;;;;5130156;27;20184;-48
2021/05/14 08:43:58;;;;;;;13.67;5.20;;;10.50;99.90;;;;;;5119514;27;20213;-45
2021/05/14 08:46:26;;;;;;;12.67;5.83;;;10.50;99.90;;;;;;5111793;27;20665;-51
2021/05/14 08:48:53;;;;;;;16.23;5.83;;;10.60;99.90;;;;;;5107215;27;20700;-45
2021/05/14 08:51:26;;;;;;;13.07;5.30;;;10.50;99.90;;;;;;5096676;27;20199;-49
2021/05/14 08:53:52;;;;;;;11.80;4.73;;;10.60;99.90;;;;;;5126435;27;20212;-46
2021/05/14 08:56:19;;;;;;;14.13;6.63;;;10.60;99.90;;;;;;5113895;27;20192;-52
2021/05/14 08:58:45;;;;;;;12.87;4.83;;;10.60;99.90;;;;;;5123104;27;20198;-47
2021/05/14 09:01:12;;;;;;;11.00;4.63;;;10.70;99.90;;;;;;5117540;27;20211;-52
2021/05/14 09:04:03;;;;;;;15.90;4.73;;;10.70;99.90;;;;;;5105081;27;20232;-46
2021/05/14 09:06:34;;;;;;;13.80;5.07;;;10.70;99.90;;;;;;5096017;27;20252;-44
2021/05/14 09:09:03;;;;;;;11.77;4.87;;;10.70;99.90;;;;;;5104490;27;20565;-53
2021/05/14 09:11:35;;;;;;;14.50;5.70;;;10.80;99.90;;;;;;5106706;27;20196;-54
2021/05/14 09:14:01;;;;;;;10.60;5.13;;;10.80;99.90;;;;;;5108777;27;20227;-50
2021/05/14 09:16:38;;;;;;;11.40;4.93;;;10.80;99.90;;;;;;5113141;27;20208;-50
2021/05/14 09:19:05;;;;;;;15.30;5.57;;;10.80;99.90;;;;;;5097310;27;20285;-48
2021/05/14 09:21:31;;;;;;;16.13;5.23;;;10.80;99.90;;;;;;5113767;27;20201;-56
2021/05/14 09:23:57;;;;;;;17.97;5.50;;;10.80;99.90;;;;;;5097610;27;20219;-49
2021/05/14 09:26:29;;;;;;;14.67;5.67;;;10.80;99.90;;;;;;5119015;27;20295;-47
2021/05/14 09:28:55;;;;;;;13.67;5.63;;;10.80;99.90;;;;;;5098196;27;20353;-49
2021/05/14 09:31:22;;;;;;;17.90;6.17;;;10.70;99.90;;;;;;5098960;27;20219;-51
2021/05/14 09:33:51;;;;;;;15.60;6.13;;;10.70;99.90;;;;;;5111736;28;20296;-52
2021/05/14 09:36:21;;;;;;;14.93;5.87;;;10.70;99.90;;;;;;5110994;27;20646;-52
2021/05/14 09:38:49;;;;;;;13.57;5.87;;;10.70;99.90;;;;;;5096884;27;20208;-55
2021/05/14 09:41:29;;;;;;;13.40;6.20;;;10.70;99.90;;;;;;5113182;27;20562;-47
2021/05/14 09:44:07;;;;;;;13.53;5.57;;;10.70;99.90;;;;;;5104843;27;20212;-48
2021/05/14 09:46:39;;;;;;;18.67;6.40;;;10.70;99.90;;;;;;5104659;27;20962;-48
2021/05/14 09:49:06;;;;;;;18.77;6.97;;;10.70;99.90;;;;;;5121388;27;20207;-52
2021/05/14 09:51:34;;;;;;;18.93;6.37;;;10.70;99.90;;;;;;5117391;27;20331;-51
2021/05/14 09:54:21;;;;;;;13.77;6.50;;;10.70;99.90;;;;;;5116212;27;20310;-49
2021/05/14 09:57:05;;;;;;;15.57;6.63;;;10.60;99.90;;;;;;5114697;27;20212;-49
2021/05/14 09:59:32;;;;;;;20.00;6.43;;;10.60;99.90;;;;;;5114097;27;20199;-51
2021/05/14 10:01:59;;;;;;;15.27;6.93;;;10.60;99.90;;;;;;5111404;27;20258;-51
2021/05/14 10:04:26;;;;;;;13.43;6.90;;;10.50;99.90;;;;;;5113075;27;20211;-48
2021/05/14 10:06:54;;;;;;;12.13;6.30;;;10.50;99.90;;;;;;5112335;27;20204;-49
2021/05/14 10:09:22;;;;;;;19.97;6.97;;;10.50;99.90;;;;;;5118628;27;20208;-54
2021/05/14 10:11:48;;;;;;;15.20;7.10;;;10.50;99.90;;;;;;5110222;27;20220;-50
2021/05/14 10:14:15;;;;;;;17.53;7.00;;;10.50;99.90;;;;;;5119735;27;20226;-54
2021/05/14 10:16:41;;;;;;;21.00;6.97;;;10.50;99.90;;;;;;5121450;27;20305;-49
2021/05/14 10:19:08;;;;;;;17.07;6.80;;;10.50;99.90;;;;;;5119873;27;20196;-54
2021/05/14 10:21:35;;;;;;;15.60;6.63;;;10.50;99.90;;;;;;5111583;27;21105;-53
2021/05/14 10:24:02;;;;;;;15.97;6.27;;;10.40;99.90;;;;;;5123322;27;20284;-48
2021/05/14 10:26:36;;;;;;;12.23;6.67;;;10.40;99.90;;;;;;5110718;27;20223;-50
2021/05/14 10:29:11;;;;;;;18.40;6.50;;;10.40;99.90;;;;;;5101914;27;20201;-49
2021/05/14 10:31:43;;;;;;;18.97;7.00;;;10.30;99.90;;;;;;5127443;27;20192;-49
2021/05/14 10:34:13;;;;;;;15.53;6.23;;;10.40;99.90;;;;;;5117510;27;20225;-53
2021/05/14 10:36:44;;;;;;;17.83;6.80;;;10.30;99.90;;;;;;5120496;27;20193;-49
2021/05/14 10:39:15;;;;;;;17.80;7.60;;;10.40;99.90;;;;;;5114201;27;20288;-54
2021/05/14 10:41:52;;;;;;;14.70;7.00;;;10.40;99.90;;;;;;5109436;27;20192;-50
2021/05/14 10:44:46;;;;;;;14.33;6.33;;;10.40;99.90;;;;;;5131610;27;20231;-53
2021/05/14 10:47:46;;;;;;;17.03;6.67;;;10.40;99.90;;;;;;5114758;27;20189;-54
2021/05/14 10:50:15;;;;;;;17.13;7.23;;;10.50;99.90;;;;;;5106692;27;20204;-51
2021/05/14 10:53:14;;;;;;;16.60;7.20;;;10.40;99.90;;;;;;5115926;27;20341;-45
2021/05/14 10:55:41;;;;;;;13.10;6.70;;;10.40;99.90;;;;;;5111907;27;20185;-45
2021/05/14 10:58:07;;;;;;;19.27;7.30;;;10.50;99.90;;;;;;5107407;27;20209;-46
2021/05/14 11:00:38;;;;;;;21.37;7.10;;;10.40;99.90;;;;;;5114202;27;21026;-47
2021/05/14 11:03:15;;;;;;;13.10;7.00;;;10.30;99.90;;;;;;5113478;27;20646;-50
2021/05/14 11:05:43;;;;;;;14.37;6.60;;;10.40;99.90;;;;;;5100631;27;20269;-45
2021/05/14 11:08:09;;;;;;;15.77;6.93;;;10.30;99.90;;;;;;5110371;27;20201;-47
2021/05/14 11:10:37;;;;;;;14.43;6.83;;;10.40;99.90;;;;;;5105682;27;20914;-45
2021/05/14 11:13:36;;;;;;;11.77;6.40;;;10.40;99.90;;;;;;5110451;27;20534;-49
2021/05/14 11:16:34;;;;;;;20.70;8.10;;;10.30;99.90;;;;;;5056874;27;20210;-46
2021/05/14 11:19:10;;;;;;;12.73;6.83;;;10.30;99.90;;;;;;5109621;27;20689;-48
2021/05/14 11:21:59;;;;;;;13.40;6.47;;;10.30;99.90;;;;;;5113233;27;20196;-48
2021/05/14 11:24:34;;;;;;;15.07;5.60;;;10.20;99.90;;;;;;5098396;27;20209;-46
2021/05/14 11:27:03;;;;;;;17.57;6.17;;;10.20;99.90;;;;;;5103907;28;20192;-48
2021/05/14 11:29:33;;;;;;;14.20;6.63;;;10.20;99.90;;;;;;5104907;27;20264;-48
2021/05/14 11:32:26;;;;;;;13.53;6.13;;;10.10;99.90;;;;;;5138261;27;20585;-51
2021/05/14 11:35:08;;;;;;;12.53;6.20;;;10.20;99.90;;;;;;5105311;28;20213;-49
2021/05/14 11:37:36;;;;;;;16.23;6.87;;;10.20;99.90;;;;;;5123398;27;20200;-47
2021/05/14 11:40:11;;;;;;;11.47;6.00;;;10.10;99.90;;;;;;5125547;27;20656;-49
2021/05/14 11:42:43;;;;;;;15.53;7.17;;;10.10;99.90;;;;;;5125508;27;20195;-47
2021/05/14 11:45:15;;;;;;;13.63;6.37;;;10.00;99.90;;;;;;5114113;27;20230;-53
2021/05/14 11:47:47;;;;;;;16.77;7.10;;;10.00;99.90;;;;;;5116510;27;20753;-49
2021/05/14 11:50:24;;;;;;;16.87;7.13;;;10.00;99.90;;;;;;5101742;27;20193;-52
2021/05/14 11:52:51;;;;;;;12.47;6.50;;;10.10;99.90;;;;;;5117692;27;20220;-48
2021/05/14 11:55:18;;;;;;;12.97;6.63;;;10.10;99.90;;;;;;5117651;27;20260;-52
2021/05/14 11:57:48;;;;;;;17.87;7.67;;;10.10;99.90;;;;;;5118783;27;20204;-48
2021/05/14 12:00:17;;;;;;;9.30;6.17;;;10.20;99.90;;;;;;5098909;27;20265;-50
2021/05/14 12:02:45;;;;;;;13.57;6.47;;;10.10;99.90;;;;;;5121138;27;20288;-48
2021/05/14 12:05:14;;;;;;;13.03;6.13;;;10.10;99.90;;;;;;5112349;27;20216;-51
2021/05/14 12:07:43;;;;;;;10.80;6.70;;;10.10;99.90;;;;;;5115282;27;20253;-49
2021/05/14 12:10:12;;;;;;;18.67;7.27;;;10.20;99.90;;;;;;5121890;27;20624;-47
2021/05/14 12:12:40;;;;;;;14.70;6.77;;;10.20;99.90;;;;;;5114580;27;20189;-48
2021/05/14 12:15:20;;;;;;;15.63;6.50;;;10.20;99.90;;;;;;5111867;27;20224;-52
2021/05/14 12:17:48;;;;;;;14.20;6.33;;;10.20;99.90;;;;;;5120532;27;20204;-49
2021/05/14 12:20:26;;;;;;;17.37;8.23;;;10.20;99.90;;;;;;5111785;27;20550;-53
2021/05/14 12:22:55;;;;;;;10.63;6.27;;;10.20;99.90;;;;;;5116347;27;20201;-53
2021/05/14 12:25:22;;;;;;;13.53;6.53;;;10.20;99.90;;;;;;5102598;27;20213;-50
2021/05/14 12:27:49;;;;;;;13.67;6.73;;;10.10;99.90;;;;;;5114015;27;20197;-48
2021/05/14 12:30:19;;;;;;;12.57;6.30;;;10.10;99.90;;;;;;5103866;27;20246;-50
2021/05/14 12:33:03;;;;;;;13.03;6.40;;;10.10;99.90;;;;;;5124092;27;20204;-49
2021/05/14 12:35:29;;;;;;;8.83;6.40;;;10.10;99.90;;;;;;5099218;27;20460;-51
2021/05/14 12:37:57;;;;;;;11.53;6.73;;;10.00;99.90;;;;;;5112033;27;20328;-49
2021/05/14 12:40:31;;;;;;;14.80;6.97;;;10.10;99.90;;;;;;5110480;27;20208;-51
2021/05/14 12:43:05;;;;;;;15.57;6.90;;;10.00;99.90;;;;;;5114034;27;20653;-49
2021/05/14 12:45:35;;;;;;;15.60;7.70;;;10.00;99.90;;;;;;5109473;27;20319;-49